Friday, February 23, 2018, 7:11 AM EST
Back to Local

KWAL, Wallops Flight Fac Airport

Location: Wallops Island, VA, United States Lat: 37.933
Local Time: 7:11 AM EST (12:11 GMT) Lon: -75.467
Time Zone: US/Eastern Elev: 39 ft

Show me the last for .
Show Decoded

2018-02-23 06:54 METAR KWAL 231154Z AUTO 05014KT 4SM BR OVC004 08/07 A3053 RMK AO2 SLP336
                 T00780067 10078 20072 51001 =
2018-02-23 05:54 METAR KWAL 231054Z AUTO 05014KT 3SM BR OVC004 08/07 A3053 RMK AO2 SLP336
                 T00780067 =
2018-02-23 05:30 METAR KWAL 231030Z AUTO 05015KT 3SM BR OVC004 07/07 A3053 RMK AO2 T00720067 =
2018-02-23 05:14 METAR KWAL 231014Z AUTO 04017G22KT 2 1/2SM BR OVC005 07/07 A3053 RMK AO2
                 T00720067 =
2018-02-23 04:54 METAR KWAL 230954Z AUTO 03010KT 4SM BR OVC005 07/07 A3055 RMK AO2 SLP342
                 T00720067 =
2018-02-23 04:01 METAR KWAL 230901Z AUTO 04016G24KT 4SM BR OVC005 07/06 A3053 =
2018-02-23 03:54 METAR KWAL 230854Z AUTO 05018KT 4SM BR OVC006 07/06 A3053 RMK AO2 SLP336
                 T00720061 58005 =
2018-02-23 02:54 METAR KWAL 230754Z AUTO 04016KT 9SM OVC007 08/06 A3055 RMK AO2 SLP342 T00780061
                 =
2018-02-23 02:30 METAR KWAL 230730Z AUTO 05017G25KT 10SM OVC007 08/06 A3054 RMK AO2 T00780061 =
2018-02-23 02:08 METAR KWAL 230708Z AUTO 04015G21KT 10SM OVC008 08/06 A3055 RMK AO2 T00780061 =
2018-02-23 01:54 METAR KWAL 230654Z AUTO 04016G23KT 10SM OVC007 08/06 A3055 RMK AO2 SLP341
                 T00780061 =
2018-02-23 01:19 METAR KWAL 230619Z AUTO 05013KT 10SM OVC007 07/06 A3054 RMK AO2 T00720061 =
2018-02-23 00:54 METAR KWAL 230554Z AUTO 04014KT 10SM OVC008 08/06 A3055 RMK AO2 SLP340 T00780061
                 10083 20067 58001 =
2018-02-23 00:19 METAR KWAL 230519Z AUTO 04015KT 10SM OVC008 08/06 A3055 RMK AO2 T00780061 =
2018-02-22 23:54 METAR KWAL 230454Z AUTO 04013KT 10SM OVC007 08/06 A3055 RMK AO2 SLP343 T00780061
                 =
2018-02-22 22:54 METAR KWAL 230354Z AUTO 05017G22KT 10SM OVC007 07/06 A3055 RMK AO2 PK WND
                 05029/0257 SLP342 T00720061 =
2018-02-22 22:22 METAR KWAL 230322Z AUTO 05018G24KT 10SM BKN007 OVC019 07/06 A3055 RMK AO2 PK WND
                 05029/0257 T00720056 =
2018-02-22 21:54 METAR KWAL 230254Z AUTO 04020G28KT 10SM OVC008 07/06 A3055 RMK AO2 PK WND
                 04032/0213 SLP341 T00720056 51013 =
2018-02-22 21:28 METAR KWAL 230228Z AUTO 04021G32KT 10SM OVC008 07/06 A3055 RMK AO2 PK WND
                 04032/0213 T00670056 =
2018-02-22 20:54 METAR KWAL 230154Z AUTO 04022G30KT 8SM OVC007 07/06 A3054 RMK AO2 PK WND
                 04032/0100 SLP339 T00720056 =
2018-02-22 20:40 METAR KWAL 230140Z AUTO 04022G31KT 8SM OVC007 07/06 A3054 RMK AO2 PK WND
                 04032/0100 T00720056 =
2018-02-22 20:10 METAR KWAL 230110Z AUTO 04023G30KT 6SM BR OVC008 07/06 A3053 RMK AO2 PK WND
                 04032/0100 T00720056 =
2018-02-22 19:54 METAR KWAL 230054Z AUTO 03023G32KT 6SM BR OVC007 07/06 A3054 RMK AO2 PK WND
                 04032/0049 SLP337 T00720061 =
2018-02-22 19:26 METAR KWAL 230026Z AUTO 04020G26KT 6SM BR OVC006 08/07 A3052 RMK AO2 PK WND
                 03026/0026 T00780067 =
2018-02-22 18:54 METAR KWAL 222354Z AUTO 03016G21KT 5SM BR OVC005 08/07 A3051 RMK AO2 SLP328
                 T00830072 10117 20083 53030 =
2018-02-22 18:33 METAR KWAL 222333Z AUTO 02012G18KT 5SM BR OVC005 08/07 A3051 RMK AO2 T00830072 =
2018-02-22 17:54 METAR KWAL 222254Z AUTO 03013KT 9SM OVC006 09/08 A3048 RMK AO2 SLP317 T00940078
                 =
2018-02-22 16:54 METAR KWAL 222154Z AUTO 04014KT 8SM OVC006 10/08 A3044 RMK AO2 SLP303 T01000083
                 =
2018-02-22 16:42 METAR KWAL 222142Z AUTO 03013KT 7SM OVC006 10/08 A3043
2018-02-22 15:54 METAR KWAL 222054Z AUTO 04016KT 7SM OVC005 10/08 A3042 RMK AO2 SLP298 T01000083
                 55009 =
2018-02-22 15:24 METAR KWAL 222024Z AUTO 05015KT 6SM BR OVC005 10/08 A3041 RMK AO2 T01000083 =
2018-02-22 14:54 METAR KWAL 221954Z AUTO 05014KT 4SM BR OVC004 10/09 A3041 RMK AO2 SLP296
                 T01000089 =
2018-02-22 14:26 METAR KWAL 221926Z AUTO 05013KT 5SM BR OVC005 11/09 A3042 RMK AO2 T01060094 =
2018-02-22 14:11 METAR KWAL 221911Z AUTO 05013KT 6SM BR OVC006 11/09 A3042 RMK AO2 CIG 004V008
                 T01110094 =
2018-02-22 13:54 METAR KWAL 221854Z AUTO 05013KT 6SM BR OVC005 11/10 A3042 RMK AO2 SLP298
                 T01110100 =
2018-02-22 13:43 METAR KWAL 221843Z AUTO 05012KT 7SM OVC005 11/10 A3043 RMK AO2 T01110100 =
2018-02-22 12:54 METAR KWAL 221754Z AUTO 03011KT 4SM BR OVC007 11/09 A3045 RMK AO2 SLP307 60000
                 T01110094 58011 =
2018-02-22 11:54 METAR KWAL 221654Z AUTO 04014KT 6SM BR OVC007 12/09 A3047 RMK AO2 SLP313
                 T01170094 =
2018-02-22 11:43 METAR KWAL 221643Z AUTO 05013KT 7SM OVC007 12/09 A3046 RMK AO2 T01170094 =
2018-02-22 11:31 METAR KWAL 221631Z AUTO 05014KT 6SM BR OVC008 12/09 A3046 RMK AO2 T01170094 =
2018-02-22 10:54 METAR KWAL 221554Z AUTO 03011KT 10SM OVC007 12/09 A3049 RMK AO2 RAB09E30 SLP320
                 P0000 T01170094 =
2018-02-22 10:43 METAR KWAL 221543Z AUTO 03013KT 10SM OVC007 12/09 A3048 RMK AO2 RAB09E30 P0000
                 T01170089 =
2018-02-22 09:54 METAR KWAL 221454Z AUTO 04014KT 10SM OVC008 12/09 A3048 RMK AO2 SLP318 T01170094
                 53004 =
2018-02-22 09:17 METAR KWAL 221417Z AUTO 04016KT 10SM OVC006 A3047 =
2018-02-22 08:54 METAR KWAL 221354Z AUTO 03013KT 3SM BR OVC004 A3046 RMK AO2 SLP313 =
2018-02-22 08:50 METAR KWAL 221350Z AUTO 04011KT 4SM HZ OVC004 A3046 RMK AO2 =
2018-02-22 08:27 METAR KWAL 221327Z AUTO 04008KT 5SM HZ OVC005 A3046 RMK AO2 =
2018-02-22 08:16 METAR KWAL 221316Z AUTO 05012KT 6SM HZ OVC006 A3046 RMK AO2 =
2018-02-22 07:54 METAR KWAL 221254Z AUTO 06013KT 6SM HZ BKN005 OVC009 A3046 RMK AO2 SLP313 $ =
2018-02-22 07:44 METAR KWAL 221244Z AUTO 06009KT 7SM OVC008 A3045 RMK AO2 CIG 005V011 $ =

Support USWX by starting your Amazon purchase here.